Time;durP1;ratioP1;P1;durP2;ratioP2;P2;SDS_P1;SDS_P2;PMS_P1;PMS_P2;Temp;Humidity;BMP_temperature;BMP_pressure;BME280_temperature;BME280_humidity;BME280_pressure;Samples;Min_cycle;Max_cycle;Signal;HPM_P1;HPM_P2
2021/12/16 00:08:50;;;;;;;62.90;23.33;;;7.20;99.90;;;;;;4975461;28;20061;-90
2021/12/16 00:11:36;;;;;;;60.05;24.25;;;7.20;99.90;;;;;;4959106;28;20121;-91
2021/12/16 00:39:34;;;;;;;76.15;26.98;;;6.90;99.90;;;;;;4974556;28;20049;-91
2021/12/16 00:42:06;;;;;;;81.22;29.55;;;6.90;99.90;;;;;;4973360;28;20053;-92
2021/12/16 00:49:46;;;;;;;72.45;28.38;;;7.00;99.90;;;;;;5030552;28;20160;-91
2021/12/16 00:55:17;;;;;;;76.93;28.45;;;7.10;99.90;;;;;;5033969;28;20057;-91
2021/12/16 00:57:45;;;;;;;69.85;27.48;;;7.10;99.90;;;;;;5031188;28;20110;-91
2021/12/16 01:00:15;;;;;;;62.28;27.23;;;7.10;99.90;;;;;;5026964;28;20045;-91
2021/12/16 01:35:43;;;;;;;69.55;28.45;;;6.90;99.90;;;;;;5016609;28;20060;-90
2021/12/16 01:41:40;;;;;;;87.55;31.67;;;6.90;99.90;;;;;;5016227;28;20057;-90
2021/12/16 01:46:34;;;;;;;73.80;29.52;;;7.00;99.90;;;;;;5016466;28;20060;-91
2021/12/16 01:55:09;;;;;;;82.00;31.08;;;7.10;99.90;;;;;;4937902;29;20105;-91
2021/12/16 01:57:46;;;;;;;95.57;31.55;;;7.10;99.90;;;;;;4921641;29;20047;-91
2021/12/16 02:00:32;;;;;;;82.13;31.00;;;7.10;99.90;;;;;;4937497;29;20047;-91
2021/12/16 02:03:02;;;;;;;74.88;29.75;;;7.20;99.90;;;;;;4937876;29;20057;-90
2021/12/16 02:10:42;;;;;;;84.65;30.23;;;7.50;99.90;;;;;;4937570;29;20058;-91
2021/12/16 02:13:39;;;;;;;81.95;30.33;;;7.30;99.90;;;;;;4937193;29;20055;-91
2021/12/16 02:32:07;;;;;;;71.72;29.00;;;7.30;99.90;;;;;;5036096;28;20045;-91
2021/12/16 02:37:17;;;;;;;70.75;29.13;;;7.30;99.90;;;;;;5035951;28;20060;-91
2021/12/16 02:39:43;;;;;;;78.38;30.88;;;7.40;99.90;;;;;;5036102;28;20052;-91
2021/12/16 02:42:17;;;;;;;78.60;31.42;;;7.40;99.90;;;;;;5035554;28;20057;-91
2021/12/16 02:50:12;;;;;;;75.22;28.98;;;7.50;99.90;;;;;;5035875;28;20056;-91
2021/12/16 02:52:39;;;;;;;70.15;28.73;;;7.50;99.90;;;;;;5036186;28;20052;-91
2021/12/16 02:55:07;;;;;;;75.72;30.70;;;7.50;99.90;;;;;;5035893;28;20037;-91
2021/12/16 02:57:39;;;;;;;73.90;29.58;;;7.50;99.90;;;;;;5035951;28;20052;-91
2021/12/16 03:00:14;;;;;;;56.83;27.88;;;7.50;99.90;;;;;;5019552;28;20048;-91
2021/12/16 03:02:42;;;;;;;70.57;28.88;;;7.50;99.90;;;;;;5036080;28;20084;-92
2021/12/16 03:05:09;;;;;;;78.70;29.13;;;7.50;99.90;;;;;;5036135;28;20045;-91
2021/12/16 03:07:35;;;;;;;61.95;26.05;;;7.50;99.90;;;;;;5035252;28;20103;-91
2021/12/16 03:15:25;;;;;;;62.28;28.05;;;7.50;99.90;;;;;;5039662;28;20491;-91
2021/12/16 03:18:00;;;;;;;65.65;28.08;;;7.70;99.90;;;;;;5039669;28;20556;-92
2021/12/16 03:20:44;;;;;;;65.80;27.45;;;7.50;99.90;;;;;;5023444;28;20390;-91
2021/12/16 03:36:47;;;;;;;59.25;26.70;;;7.60;99.90;;;;;;5039235;28;20489;-92
2021/12/16 03:39:11;;;;;;;58.88;25.77;;;7.60;99.90;;;;;;5056769;28;20122;-91
2021/12/16 03:41:37;;;;;;;57.75;26.08;;;7.60;99.90;;;;;;5023546;28;20091;-91
2021/12/16 03:44:13;;;;;;;60.60;26.73;;;7.80;99.90;;;;;;5022675;28;20084;-92
2021/12/16 03:46:43;;;;;;;60.47;26.65;;;7.70;99.90;;;;;;5022436;28;20092;-91
2021/12/16 03:49:11;;;;;;;60.70;27.63;;;7.60;99.90;;;;;;5039430;28;20173;-92
2021/12/16 03:51:46;;;;;;;64.10;26.15;;;7.70;99.90;;;;;;5039013;28;20490;-91
2021/12/16 03:54:30;;;;;;;54.40;26.33;;;7.70;99.90;;;;;;5038990;28;20553;-91
2021/12/16 03:56:58;;;;;;;47.95;24.35;;;7.70;99.90;;;;;;5022715;28;20076;-92
2021/12/16 03:59:28;;;;;;;65.93;27.05;;;7.70;99.90;;;;;;5022211;28;20060;-91
2021/12/16 04:01:56;;;;;;;61.13;26.90;;;7.70;99.90;;;;;;5038769;28;20045;-91
2021/12/16 04:04:22;;;;;;;60.90;26.83;;;7.70;99.90;;;;;;5039176;28;20402;-91
2021/12/16 04:06:48;;;;;;;54.50;26.00;;;7.70;99.90;;;;;;5039158;28;20045;-92
2021/12/16 04:09:17;;;;;;;61.72;26.88;;;7.70;99.90;;;;;;5039006;28;20045;-92
2021/12/16 04:11:51;;;;;;;57.70;27.27;;;7.70;99.90;;;;;;5038554;28;20107;-92
2021/12/16 04:14:18;;;;;;;57.92;26.38;;;7.70;99.90;;;;;;5039017;28;20045;-91
2021/12/16 04:16:48;;;;;;;62.15;27.08;;;7.70;99.90;;;;;;5038889;28;20048;-92
2021/12/16 04:19:17;;;;;;;59.28;27.55;;;7.70;99.90;;;;;;5038433;28;20048;-93
2021/12/16 04:25:39;;;;;;;51.83;24.92;;;7.70;99.90;;;;;;5049400;28;20497;-92
2021/12/16 04:28:07;;;;;;;;;;;7.80;99.90;;;;;;5022315;28;20380;-91
2021/12/16 04:30:33;;;;;;;53.22;25.08;;;7.70;99.90;;;;;;5021585;28;19928;-91
2021/12/16 04:32:59;;;;;;;46.75;24.73;;;7.90;99.90;;;;;;5038457;28;20045;-91
2021/12/16 04:35:25;;;;;;;52.40;25.67;;;7.70;99.90;;;;;;5021491;28;20061;-91
2021/12/16 04:41:32;;;;;;;62.15;26.25;;;7.70;99.90;;;;;;5055623;28;20090;-92
2021/12/16 04:43:58;;;;;;;63.42;26.92;;;7.70;99.90;;;;;;5038188;28;20045;-91
2021/12/16 04:46:28;;;;;;;58.83;26.48;;;7.70;99.90;;;;;;5037951;28;20087;-91
2021/12/16 04:48:56;;;;;;;58.97;27.10;;;7.80;99.90;;;;;;5037749;28;20384;-91
2021/12/16 04:51:44;;;;;;;56.75;25.58;;;8.00;99.90;;;;;;5037936;28;20106;-91
2021/12/16 04:54:11;;;;;;;58.65;26.88;;;7.80;99.90;;;;;;5037657;28;20123;-92
2021/12/16 04:56:38;;;;;;;51.03;26.15;;;7.90;99.90;;;;;;5020860;28;20053;-91
2021/12/16 04:59:10;;;;;;;54.83;25.33;;;7.80;99.90;;;;;;5021408;28;20060;-91
2021/12/16 05:01:40;;;;;;;62.42;26.10;;;8.00;99.90;;;;;;5038106;28;20053;-91
2021/12/16 05:04:06;;;;;;;52.13;25.73;;;8.00;99.90;;;;;;5020943;28;20391;-91
2021/12/16 05:06:40;;;;;;;54.85;26.75;;;8.00;99.90;;;;;;5037711;28;20047;-91
2021/12/16 05:09:07;;;;;;;55.47;26.45;;;7.80;99.90;;;;;;5037341;28;20057;-91
2021/12/16 05:11:35;;;;;;;51.67;25.08;;;7.80;99.90;;;;;;5021161;28;20052;-90
2021/12/16 05:14:04;;;;;;;56.45;24.40;;;8.00;99.90;;;;;;5037444;28;20387;-91
2021/12/16 05:16:30;;;;;;;57.53;27.05;;;7.80;99.90;;;;;;5020985;28;20071;-91
2021/12/16 05:18:56;;;;;;;57.67;25.33;;;7.80;99.90;;;;;;5036956;28;20049;-91
2021/12/16 05:28:21;;;;;;;53.90;25.38;;;7.90;99.90;;;;;;5013646;28;20116;-91
2021/12/16 05:30:48;;;;;;;49.17;23.40;;;7.90;99.90;;;;;;5014607;28;20092;-92
2021/12/16 05:33:15;;;;;;;52.97;26.05;;;7.80;99.90;;;;;;5000449;28;20155;-91
2021/12/16 05:35:41;;;;;;;58.70;28.73;;;8.00;99.90;;;;;;5000929;28;20122;-90
2021/12/16 05:38:06;;;;;;;60.22;26.70;;;7.80;99.90;;;;;;5017055;28;20037;-91
2021/12/16 05:40:33;;;;;;;61.53;27.67;;;7.80;99.90;;;;;;5017037;28;20505;-91
2021/12/16 05:43:04;;;;;;;57.63;28.02;;;7.80;99.90;;;;;;5016780;28;20080;-91
2021/12/16 05:45:30;;;;;;;56.95;28.00;;;7.80;99.90;;;;;;5000475;28;20509;-91
2021/12/16 05:47:58;;;;;;;60.03;27.02;;;7.80;99.90;;;;;;5016400;28;20132;-90
2021/12/16 05:50:26;;;;;;;60.65;28.30;;;7.80;99.90;;;;;;5016389;28;20045;-91
2021/12/16 05:52:52;;;;;;;76.00;28.20;;;7.80;99.90;;;;;;5016482;28;20045;-91
2021/12/16 05:55:19;;;;;;;512.08;68.82;;;7.80;99.90;;;;;;5000554;28;20068;-91
2021/12/16 05:57:46;;;;;;;62.85;27.73;;;7.80;99.90;;;;;;4999581;28;20046;-90
2021/12/16 06:00:19;;;;;;;60.45;27.25;;;7.80;99.90;;;;;;4992557;28;20576;-91
2021/12/16 06:02:46;;;;;;;67.88;27.75;;;7.80;99.90;;;;;;5016737;28;20099;-91
2021/12/16 06:05:12;;;;;;;62.97;27.38;;;7.90;99.90;;;;;;4999904;28;20065;-90
2021/12/16 06:11:23;;;;;;;62.70;28.15;;;7.80;99.90;;;;;;5013627;28;20498;-91
2021/12/16 06:22:30;;;;;;;61.60;28.15;;;8.10;99.90;;;;;;4996407;28;20100;-91
2021/12/16 06:27:46;;;;;;;58.25;26.98;;;7.90;99.90;;;;;;4994969;28;20062;-90
2021/12/16 06:30:17;;;;;;;60.72;28.10;;;7.90;99.90;;;;;;4996315;28;20499;-90
2021/12/16 06:32:42;;;;;;;54.50;26.13;;;7.90;99.90;;;;;;4996412;28;20049;-90
2021/12/16 06:35:10;;;;;;;61.13;26.75;;;7.90;99.90;;;;;;4996020;28;20046;-92
2021/12/16 06:37:36;;;;;;;58.40;27.27;;;7.90;99.90;;;;;;4996185;28;20042;-90
2021/12/16 06:40:04;;;;;;;62.25;27.40;;;7.90;99.90;;;;;;4996208;28;20057;-90
2021/12/16 06:42:30;;;;;;;57.55;27.50;;;7.90;99.90;;;;;;4997331;28;20140;-90
2021/12/16 06:45:03;;;;;;;63.92;27.27;;;7.90;99.90;;;;;;4998899;28;20052;-90
2021/12/16 06:47:45;;;;;;;61.25;27.63;;;7.90;99.90;;;;;;4983908;28;20045;-91
2021/12/16 06:50:22;;;;;;;58.30;26.48;;;8.00;99.90;;;;;;4984610;28;20057;-91
2021/12/16 06:52:49;;;;;;;62.47;27.45;;;7.90;99.90;;;;;;4983011;28;20443;-88
2021/12/16 06:55:27;;;;;;;65.57;27.33;;;7.90;99.90;;;;;;5000039;28;20056;-89
2021/12/16 06:57:55;;;;;;;59.85;25.90;;;7.90;99.90;;;;;;4983665;28;20101;-88
2021/12/16 07:00:33;;;;;;;55.67;26.20;;;7.90;99.90;;;;;;4999400;28;20054;-88
2021/12/16 07:03:02;;;;;;;62.13;26.67;;;7.90;99.90;;;;;;4999693;28;20042;-88
2021/12/16 07:05:32;;;;;;;65.45;27.27;;;7.90;99.90;;;;;;4983284;28;20416;-88
2021/12/16 07:07:59;;;;;;;60.60;28.08;;;7.90;99.90;;;;;;4999168;28;20053;-88
2021/12/16 07:10:26;;;;;;;66.43;28.17;;;7.90;99.90;;;;;;4999589;28;20133;-88
2021/12/16 07:12:56;;;;;;;65.60;28.25;;;7.80;99.90;;;;;;4999291;28;20050;-88
2021/12/16 07:15:27;;;;;;;78.65;30.88;;;7.80;99.90;;;;;;4999040;28;20522;-88
2021/12/16 07:17:54;;;;;;;76.80;29.63;;;7.70;99.90;;;;;;4981833;28;20089;-88
2021/12/16 07:20:23;;;;;;;72.88;28.98;;;7.50;99.90;;;;;;4999242;28;20048;-88
2021/12/16 07:22:49;;;;;;;77.93;29.73;;;7.40;99.90;;;;;;4999256;28;20048;-90
2021/12/16 07:25:15;;;;;;;73.68;28.17;;;7.30;99.90;;;;;;4982412;28;20455;-89
2021/12/16 07:27:41;;;;;;;83.63;31.20;;;7.50;99.90;;;;;;5007787;28;20499;-89
2021/12/16 07:30:10;;;;;;;75.07;30.48;;;7.20;99.90;;;;;;5018452;28;20056;-89
2021/12/16 07:32:36;;;;;;;76.85;31.05;;;7.10;99.90;;;;;;5018269;28;20053;-89
2021/12/16 07:35:05;;;;;;;93.20;31.52;;;7.20;99.90;;;;;;5002094;28;20037;-89
2021/12/16 07:37:31;;;;;;;87.70;30.45;;;7.00;99.90;;;;;;5001966;28;20041;-89
2021/12/16 07:40:00;;;;;;;108.47;33.53;;;7.00;99.90;;;;;;5018084;28;20099;-90
2021/12/16 07:42:31;;;;;;;102.30;32.85;;;7.00;99.90;;;;;;5018036;28;20136;-89
2021/12/16 07:44:56;;;;;;;90.40;30.55;;;6.90;99.90;;;;;;5018118;28;20513;-89
2021/12/16 07:47:22;;;;;;;102.53;33.47;;;7.10;99.90;;;;;;5017980;28;20085;-89
2021/12/16 07:49:48;;;;;;;108.35;34.00;;;7.10;99.90;;;;;;5018559;28;20427;-90
2021/12/16 07:52:17;;;;;;;132.52;35.95;;;6.90;99.90;;;;;;5002032;28;20056;-89
2021/12/16 07:54:44;;;;;;;107.28;33.72;;;7.20;99.90;;;;;;5018472;28;20050;-90
2021/12/16 07:57:10;;;;;;;128.10;36.90;;;7.00;99.90;;;;;;5017005;28;20491;-89
2021/12/16 07:59:36;;;;;;;118.80;36.38;;;7.00;99.90;;;;;;5018112;28;20304;-89
2021/12/16 08:02:07;;;;;;;116.32;34.47;;;7.20;99.90;;;;;;5017687;28;20045;-89
2021/12/16 08:04:39;;;;;;;;;;;7.10;99.90;;;;;;5018565;28;20055;-89
2021/12/16 08:07:05;;;;;;;;;;;7.10;99.90;;;;;;5018199;28;19921;-89
2021/12/16 08:09:34;;;;;;;225.40;37.67;;;7.20;99.90;;;;;;5017762;28;20425;-89
2021/12/16 08:12:02;;;;;;;208.05;36.60;;;7.20;99.90;;;;;;5017786;28;20136;-89
2021/12/16 08:14:27;;;;;;;206.00;33.17;;;7.20;99.90;;;;;;5017948;28;20144;-90
2021/12/16 08:16:54;;;;;;;190.77;36.13;;;7.20;99.90;;;;;;5001379;28;20081;-90
2021/12/16 08:19:20;;;;;;;309.08;39.60;;;7.20;99.90;;;;;;5018002;28;20044;-89
2021/12/16 08:21:46;;;;;;;260.10;38.50;;;7.20;99.90;;;;;;5017889;28;20037;-90
2021/12/16 08:24:17;;;;;;;274.35;40.22;;;7.30;99.90;;;;;;5017883;28;20045;-90
2021/12/16 08:26:47;;;;;;;282.70;40.42;;;7.20;99.90;;;;;;5015214;28;20041;-90
2021/12/16 08:29:14;;;;;;;273.83;37.47;;;7.20;99.90;;;;;;5017827;28;20140;-89
2021/12/16 08:31:41;;;;;;;312.65;38.50;;;7.20;99.90;;;;;;5017809;28;20081;-89
2021/12/16 08:34:06;;;;;;;391.98;41.88;;;7.20;99.90;;;;;;5001353;28;20058;-89
2021/12/16 08:36:34;;;;;;;446.35;44.50;;;7.20;99.90;;;;;;5017378;28;20037;-89
2021/12/16 08:39:03;;;;;;;468.73;43.55;;;7.20;99.90;;;;;;5000814;28;20415;-89
2021/12/16 08:41:32;;;;;;;385.27;39.70;;;7.20;99.90;;;;;;5017200;28;20403;-90
2021/12/16 08:43:59;;;;;;;464.00;43.28;;;7.20;99.90;;;;;;5000789;28;20419;-90
2021/12/16 08:46:28;;;;;;;302.77;35.88;;;7.20;99.90;;;;;;5017139;28;20037;-89
2021/12/16 08:48:55;;;;;;;419.48;41.35;;;7.20;99.90;;;;;;5017155;28;20061;-89
2021/12/16 08:51:27;;;;;;;350.83;39.70;;;7.30;99.90;;;;;;5000328;28;20099;-89
2021/12/16 08:53:53;;;;;;;185.57;33.60;;;7.20;99.90;;;;;;5017128;28;20042;-90
2021/12/16 08:56:20;;;;;;;276.33;33.10;;;7.20;99.90;;;;;;5016885;28;20045;-89
2021/12/16 08:58:46;;;;;;;374.52;36.05;;;7.20;99.90;;;;;;5016788;28;20046;-90
2021/12/16 09:01:16;;;;;;;290.30;33.70;;;7.30;99.90;;;;;;5016306;28;20060;-89
2021/12/16 09:03:43;;;;;;;227.02;30.85;;;7.30;99.90;;;;;;5017162;28;20041;-90
2021/12/16 09:06:09;;;;;;;251.57;29.50;;;7.20;99.90;;;;;;5016880;28;20041;-89
2021/12/16 09:08:35;;;;;;;171.05;26.95;;;7.40;99.90;;;;;;5016663;28;20041;-90
2021/12/16 09:11:04;;;;;;;219.63;28.40;;;7.30;99.90;;;;;;5016454;28;20135;-90
2021/12/16 09:13:31;;;;;;;261.20;29.42;;;7.30;99.90;;;;;;5016132;28;20187;-89
2021/12/16 09:16:03;;;;;;;127.88;22.73;;;7.40;99.90;;;;;;5016612;28;20136;-89
2021/12/16 09:18:32;;;;;;;137.15;21.85;;;7.50;99.90;;;;;;5016643;28;20049;-89
2021/12/16 09:21:00;;;;;;;129.30;22.83;;;7.40;99.90;;;;;;5016532;28;20053;-89
2021/12/16 09:23:26;;;;;;;172.45;23.83;;;7.50;99.90;;;;;;5016655;28;20398;-89
2021/12/16 09:25:52;;;;;;;89.10;22.55;;;7.50;99.90;;;;;;5016212;28;20503;-91
2021/12/16 09:28:21;;;;;;;144.50;21.98;;;7.50;99.90;;;;;;5016125;28;20060;-90
2021/12/16 09:30:47;;;;;;;103.82;21.88;;;7.60;99.90;;;;;;5016441;28;20049;-90
2021/12/16 09:33:15;;;;;;;121.05;24.20;;;7.60;99.90;;;;;;5016083;28;20063;-90
2021/12/16 09:35:45;;;;;;;131.73;22.23;;;7.50;99.90;;;;;;5016294;28;20041;-92
2021/12/16 09:38:14;;;;;;;160.85;22.75;;;7.50;99.90;;;;;;5000146;28;20132;-90
2021/12/16 09:40:51;;;;;;;113.90;21.45;;;7.50;99.90;;;;;;5016517;28;20546;-89
2021/12/16 09:43:25;;;;;;;110.13;21.33;;;7.50;99.90;;;;;;5016394;28;20049;-89
2021/12/16 09:45:57;;;;;;;91.55;20.83;;;7.60;99.90;;;;;;5016452;28;20536;-89
2021/12/16 09:48:24;;;;;;;88.97;21.35;;;7.60;99.90;;;;;;5016365;28;20045;-89
2021/12/16 09:50:51;;;;;;;105.15;21.95;;;7.60;99.90;;;;;;4999609;28;20041;-89
2021/12/16 09:53:18;;;;;;;69.15;19.95;;;7.60;99.90;;;;;;5016062;28;20049;-89
2021/12/16 09:55:46;;;;;;;68.95;20.17;;;7.60;99.90;;;;;;5016282;28;20056;-91
2021/12/16 09:58:13;;;;;;;73.85;19.40;;;7.60;99.90;;;;;;5016136;28;20103;-89
2021/12/16 10:00:39;;;;;;;61.97;18.35;;;7.60;99.90;;;;;;5016113;28;20120;-90
2021/12/16 10:03:05;;;;;;;38.38;18.65;;;7.80;99.90;;;;;;4999546;28;20208;-90
2021/12/16 10:05:34;;;;;;;51.88;18.15;;;7.70;99.90;;;;;;4999485;28;20148;-89
2021/12/16 10:08:03;;;;;;;56.10;18.48;;;7.70;99.90;;;;;;5015257;28;20450;-91
2021/12/16 10:10:28;;;;;;;66.30;19.08;;;7.70;99.90;;;;;;5015845;28;20052;-89
2021/12/16 10:12:58;;;;;;;56.35;19.70;;;7.80;99.90;;;;;;5015864;28;20483;-89
2021/12/16 10:18:07;;;;;;;68.57;19.13;;;7.80;99.90;;;;;;5015734;28;20059;-90
2021/12/16 10:20:48;;;;;;;73.63;19.63;;;7.90;99.90;;;;;;5015007;28;20132;-91
2021/12/16 10:23:24;;;;;;;50.88;19.63;;;7.90;99.90;;;;;;5016081;28;20398;-90
2021/12/16 10:25:54;;;;;;;39.80;18.05;;;7.90;99.90;;;;;;5015726;28;20056;-89
2021/12/16 10:28:29;;;;;;;58.67;19.48;;;8.00;99.90;;;;;;4996803;28;20054;-90
2021/12/16 10:31:04;;;;;;;94.65;19.10;;;8.10;99.90;;;;;;4994824;28;20046;-90
2021/12/16 10:33:57;;;;;;;65.80;18.40;;;8.10;99.90;;;;;;4979804;28;20100;-89
2021/12/16 10:36:37;;;;;;;65.47;18.90;;;8.10;99.90;;;;;;4996091;28;20046;-90
2021/12/16 10:39:11;;;;;;;57.28;18.50;;;8.20;99.90;;;;;;4978897;28;20061;-89
2021/12/16 10:41:53;;;;;;;43.75;17.58;;;8.20;99.90;;;;;;4995688;28;20041;-89
2021/12/16 10:44:31;;;;;;;57.08;17.50;;;8.20;99.90;;;;;;4995556;28;20073;-89
2021/12/16 10:47:10;;;;;;;87.00;15.82;;;8.40;99.90;;;;;;4995788;28;20053;-89
2021/12/16 10:49:42;;;;;;;145.75;19.10;;;8.50;99.90;;;;;;4995892;28;20042;-90
2021/12/16 10:52:17;;;;;;;66.25;17.42;;;8.50;99.90;;;;;;5013105;28;20054;-89
2021/12/16 10:54:46;;;;;;;73.05;16.92;;;8.50;99.90;;;;;;4996042;28;20504;-89
2021/12/16 10:57:15;;;;;;;26.17;16.30;;;8.60;99.90;;;;;;4995423;28;20559;-94
2021/12/16 10:59:46;;;;;;;48.13;16.65;;;8.80;99.90;;;;;;4995923;28;20111;-90
2021/12/16 11:02:15;;;;;;;53.08;16.95;;;8.80;99.90;;;;;;5012246;28;20068;-90
2021/12/16 11:04:55;;;;;;;56.13;15.85;;;8.80;99.90;;;;;;4996172;28;20076;-91
2021/12/16 11:07:36;;;;;;;41.53;15.88;;;8.90;99.90;;;;;;4995848;28;20053;-90
2021/12/16 11:10:11;;;;;;;;;;;8.90;99.90;;;;;;4979176;28;20064;-90
2021/12/16 11:12:54;;;;;;;30.75;14.95;;;9.00;99.90;;;;;;4995958;28;20004;-90
2021/12/16 11:15:30;;;;;;;34.78;14.98;;;9.10;99.90;;;;;;4995851;28;20099;-90
2021/12/16 11:17:59;;;;;;;32.90;16.73;;;9.20;99.90;;;;;;4995862;28;20080;-91
2021/12/16 11:20:30;;;;;;;33.55;17.27;;;9.20;99.90;;;;;;4995978;28;20046;-91
2021/12/16 11:23:12;;;;;;;32.85;14.88;;;9.30;99.90;;;;;;4996035;28;20112;-91
2021/12/16 11:25:42;;;;;;;29.50;16.40;;;9.40;99.90;;;;;;4995165;28;20514;-90
2021/12/16 11:28:31;;;;;;;32.28;15.98;;;9.50;99.90;;;;;;4990013;28;20204;-90
2021/12/16 11:31:04;;;;;;;28.88;15.23;;;9.50;99.90;;;;;;5015182;28;20108;-90
2021/12/16 11:33:44;;;;;;;28.40;14.95;;;9.50;99.90;;;;;;5019002;28;20555;-90
2021/12/16 11:36:21;;;;;;;30.95;16.42;;;9.60;99.90;;;;;;5002594;28;20060;-90
2021/12/16 11:39:01;;;;;;;27.08;16.00;;;9.50;99.90;;;;;;5018957;28;20081;-90
2021/12/16 11:41:32;;;;;;;32.80;16.00;;;9.40;99.90;;;;;;5018900;28;20049;-90
2021/12/16 11:44:04;;;;;;;27.00;15.63;;;9.40;99.90;;;;;;5018565;28;20089;-91
2021/12/16 11:46:52;;;;;;;28.50;15.52;;;9.40;99.90;;;;;;5018653;28;20045;-90
2021/12/16 11:49:36;;;;;;;29.08;16.05;;;9.40;99.90;;;;;;5018523;28;20053;-91
2021/12/16 11:52:10;;;;;;;33.50;16.52;;;9.40;99.90;;;;;;5018698;28;20041;-91
2021/12/16 11:54:40;;;;;;;28.73;15.60;;;9.30;99.90;;;;;;5019126;28;20053;-90
2021/12/16 11:57:12;;;;;;;28.27;15.63;;;9.30;99.90;;;;;;5001677;28;20049;-91
2021/12/16 11:59:45;;;;;;;32.15;17.02;;;9.20;99.90;;;;;;5035574;28;20049;-90
2021/12/16 12:02:28;;;;;;;38.05;17.30;;;9.20;99.90;;;;;;5018459;28;20080;-90
2021/12/16 12:05:14;;;;;;;36.00;16.77;;;9.20;99.90;;;;;;5018881;28;20077;-90
2021/12/16 12:08:10;;;;;;;38.28;18.27;;;9.20;99.90;;;;;;5017895;28;20099;-91
2021/12/16 12:10:45;;;;;;;35.00;17.95;;;9.20;99.90;;;;;;5002070;28;20048;-90
2021/12/16 12:13:17;;;;;;;41.05;19.40;;;9.10;99.90;;;;;;5002610;28;20096;-90
2021/12/16 12:16:15;;;;;;;39.08;19.48;;;9.10;99.90;;;;;;5002197;28;20525;-91
2021/12/16 12:18:49;;;;;;;43.35;18.60;;;9.00;99.90;;;;;;5018488;28;20085;-90
2021/12/16 12:21:35;;;;;;;34.00;18.45;;;8.90;99.90;;;;;;5018821;28;20054;-90
2021/12/16 12:24:09;;;;;;;37.88;19.23;;;9.00;99.90;;;;;;5018420;28;20102;-90
2021/12/16 12:26:47;;;;;;;48.42;18.52;;;8.90;99.90;;;;;;5016326;28;20136;-91
2021/12/16 12:29:35;;;;;;;55.58;21.02;;;8.90;99.90;;;;;;5014795;28;20045;-91
2021/12/16 12:32:09;;;;;;;46.05;20.38;;;8.90;99.90;;;;;;5018030;28;20115;-90
2021/12/16 12:34:37;;;;;;;37.85;20.17;;;8.80;99.90;;;;;;5018157;28;20045;-91
2021/12/16 12:37:07;;;;;;;52.28;19.85;;;8.80;99.90;;;;;;5018050;28;20042;-91
2021/12/16 12:39:38;;;;;;;42.42;18.80;;;8.80;99.90;;;;;;5002001;28;20046;-91
2021/12/16 12:42:06;;;;;;;52.25;19.35;;;9.00;99.90;;;;;;5017792;28;20372;-92
2021/12/16 12:44:32;;;;;;;36.33;17.23;;;8.80;99.90;;;;;;5001819;28;20395;-91
2021/12/16 12:47:03;;;;;;;51.33;18.05;;;8.90;99.90;;;;;;5017807;28;20506;-91
2021/12/16 12:49:29;;;;;;;;;;;8.70;99.90;;;;;;5018602;28;20105;-91
2021/12/16 12:52:09;;;;;;;48.00;17.25;;;8.70;99.90;;;;;;5018297;28;19972;-91
2021/12/16 12:54:36;;;;;;;38.72;17.08;;;8.60;99.90;;;;;;5018171;28;20067;-90
2021/12/16 12:57:28;;;;;;;49.22;17.85;;;8.60;99.90;;;;;;5017800;28;20049;-91
2021/12/16 12:59:55;;;;;;;45.20;17.40;;;8.70;99.90;;;;;;5001089;28;20041;-91
2021/12/16 13:02:39;;;;;;;46.30;18.70;;;8.70;99.90;;;;;;5001161;28;20053;-91
2021/12/16 13:05:10;;;;;;;42.75;17.77;;;8.70;99.90;;;;;;5017583;28;20077;-90
2021/12/16 13:07:43;;;;;;;51.47;19.05;;;8.80;99.90;;;;;;5017554;28;20037;-90
2021/12/16 13:10:23;;;;;;;47.20;17.52;;;8.70;99.90;;;;;;5017618;28;20045;-91
2021/12/16 13:13:22;;;;;;;54.67;18.33;;;8.80;99.90;;;;;;5017385;28;20053;-92
2021/12/16 13:16:02;;;;;;;40.95;17.23;;;8.70;99.90;;;;;;5017657;28;20053;-91
2021/12/16 13:24:28;;;;;;;38.78;16.77;;;8.90;99.90;;;;;;5017065;28;20056;-90
2021/12/16 13:32:39;;;;;;;37.10;16.80;;;8.80;99.90;;;;;;4919228;29;20055;-91
2021/12/16 13:35:22;;;;;;;38.88;18.05;;;8.70;99.90;;;;;;4918963;29;20119;-91
2021/12/16 13:37:49;;;;;;;60.58;18.70;;;8.60;99.90;;;;;;4919452;29;20048;-91
2021/12/16 13:40:22;;;;;;;45.42;19.55;;;8.70;99.90;;;;;;4918917;29;20059;-90
2021/12/16 13:42:58;;;;;;;51.05;19.42;;;8.60;99.90;;;;;;4903701;29;20044;-91
2021/12/16 13:46:00;;;;;;;50.47;19.55;;;8.50;99.90;;;;;;4919532;28;20060;-89
2021/12/16 14:01:10;;;;;;;72.32;18.73;;;8.40;99.90;;;;;;4934938;29;20062;-91
2021/12/16 14:03:44;;;;;;;129.18;20.50;;;8.40;99.90;;;;;;4918500;29;20051;-91
2021/12/16 14:06:25;;;;;;;143.50;20.45;;;8.20;99.90;;;;;;4977515;28;20085;-90
2021/12/16 14:08:53;;;;;;;252.70;20.35;;;8.30;99.90;;;;;;4996810;28;20053;-91
2021/12/16 14:14:42;;;;;;;100.68;18.02;;;8.20;99.90;;;;;;4996346;28;20061;-90
2021/12/16 14:17:16;;;;;;;108.22;17.38;;;8.10;99.90;;;;;;4996232;28;20439;-91
2021/12/16 14:47:53;;;;;;;197.35;19.35;;;7.90;99.90;;;;;;5009006;28;20104;-90
2021/12/16 14:50:40;;;;;;;147.10;37.47;;;7.80;99.90;;;;;;4992700;28;20054;-91
2021/12/16 14:53:21;;;;;;;344.83;35.92;;;7.60;99.90;;;;;;4976550;28;20400;-90
2021/12/16 14:55:48;;;;;;;402.27;42.22;;;7.60;99.90;;;;;;4977451;28;20050;-92
2021/12/16 14:58:17;;;;;;;455.65;39.88;;;7.60;99.90;;;;;;4996269;28;20057;-90
2021/12/16 15:00:53;;;;;;;141.40;29.48;;;7.90;99.90;;;;;;4996331;28;20510;-90
2021/12/16 15:03:20;;;;;;;163.35;26.85;;;7.60;99.90;;;;;;4976367;28;20051;-90
2021/12/16 15:05:54;;;;;;;211.70;25.33;;;7.70;99.90;;;;;;4997590;28;20492;-90
2021/12/16 15:08:34;;;;;;;193.40;22.45;;;7.70;99.90;;;;;;4998539;28;20050;-90
2021/12/16 15:11:02;;;;;;;235.95;25.40;;;7.60;99.90;;;;;;4999196;28;20128;-90
2021/12/16 15:13:43;;;;;;;336.77;27.15;;;7.70;99.90;;;;;;4983497;28;20045;-93
2021/12/16 15:16:34;;;;;;;268.85;23.13;;;7.60;99.90;;;;;;4996514;28;20199;-90
2021/12/16 15:44:12;;;;;;;280.20;25.48;;;7.80;99.90;;;;;;5037981;28;20136;-91
2021/12/16 15:46:40;;;;;;;252.73;23.98;;;7.60;99.90;;;;;;5038448;28;20124;-89
2021/12/16 15:49:06;;;;;;;235.93;21.13;;;7.60;99.90;;;;;;5038309;28;20037;-90
2021/12/16 15:51:32;;;;;;;430.30;27.08;;;7.60;99.90;;;;;;5038192;28;20527;-90
2021/12/16 15:54:00;;;;;;;183.77;20.98;;;7.60;99.90;;;;;;5037561;28;20045;-89
2021/12/16 15:56:36;;;;;;;280.08;21.45;;;7.60;99.90;;;;;;5037975;28;20048;-89
2021/12/16 15:59:09;;;;;;;339.67;23.38;;;7.80;99.90;;;;;;5038331;28;20106;-89
2021/12/16 16:01:48;;;;;;;260.77;22.95;;;7.60;99.90;;;;;;5038104;28;20102;-92
2021/12/16 16:04:29;;;;;;;317.35;22.80;;;7.60;99.90;;;;;;5037042;28;20056;-94
2021/12/16 16:06:58;;;;;;;434.02;31.73;;;7.60;99.90;;;;;;5037696;28;20037;-89
2021/12/16 16:09:29;;;;;;;864.45;57.97;;;7.80;99.90;;;;;;5037630;28;20048;-90
2021/12/16 16:11:56;;;;;;;292.23;22.47;;;7.50;99.90;;;;;;5037708;28;20048;-90
2021/12/16 16:14:25;;;;;;;241.30;24.23;;;7.70;99.90;;;;;;5037793;28;20114;-90
2021/12/16 16:16:56;;;;;;;195.73;26.00;;;7.70;99.90;;;;;;5036837;28;20084;-90
2021/12/16 16:19:33;;;;;;;449.27;28.15;;;7.70;99.90;;;;;;5037469;28;20045;-89
2021/12/16 16:22:03;;;;;;;282.50;24.30;;;7.70;99.90;;;;;;5037573;28;20393;-89
2021/12/16 16:24:33;;;;;;;379.30;31.35;;;7.70;99.90;;;;;;5037495;28;20556;-90
2021/12/16 16:27:03;;;;;;;246.23;22.52;;;7.70;99.90;;;;;;5037017;28;20071;-90
2021/12/16 16:29:30;;;;;;;371.60;24.63;;;7.50;99.90;;;;;;5037178;28;20427;-89
2021/12/16 16:31:57;;;;;;;274.65;23.08;;;7.70;99.90;;;;;;5037133;28;20438;-89
2021/12/16 16:34:27;;;;;;;247.32;22.63;;;7.70;99.90;;;;;;5036766;28;20056;-90
2021/12/16 16:37:23;;;;;;;308.88;26.52;;;7.70;99.90;;;;;;5037388;28;20049;-90
2021/12/16 16:39:55;;;;;;;235.18;23.38;;;7.80;99.90;;;;;;5037116;28;20041;-89
2021/12/16 16:42:23;;;;;;;223.90;23.15;;;7.70;99.90;;;;;;5037027;28;20041;-89
2021/12/16 16:44:55;;;;;;;189.80;21.80;;;7.70;99.90;;;;;;5037058;28;20398;-92
2021/12/16 16:47:46;;;;;;;414.55;29.75;;;7.70;99.90;;;;;;5037016;28;20047;-90
2021/12/16 16:50:13;;;;;;;389.70;27.98;;;7.70;99.90;;;;;;5037214;28;20045;-90
2021/12/16 16:52:46;;;;;;;395.58;32.53;;;7.70;99.90;;;;;;5036947;28;20146;-90
2021/12/16 16:55:22;;;;;;;201.65;30.90;;;7.80;99.90;;;;;;5036872;28;20049;-89
2021/12/16 16:57:57;;;;;;;407.95;35.72;;;7.70;99.90;;;;;;5037019;28;20134;-89
2021/12/16 17:00:32;;;;;;;494.33;38.00;;;7.70;99.90;;;;;;5036604;28;20051;-89
2021/12/16 17:03:00;;;;;;;332.38;27.33;;;7.70;99.90;;;;;;5036776;28;20056;-90
2021/12/16 17:05:36;;;;;;;820.17;62.50;;;7.70;99.90;;;;;;5036928;28;20047;-89